EDDNELLX

Guest
Details From EDDN - Nurnberg
To ELLX - Luxembourg
Flight Number -
Tags Generated
Created
Modified
Stats Distance 190 nm / 352 km
Max Altitude 0 ft / 0 m
Waypoints 2
Social Downloads 1
Likes 0
Share VATSIM

Download

Looking for another format? Having issues loading an existing format? Contact us
Advertisement - Login to hide

Notes

Generated

Route

EDDN ELLX

ID Type Via Altitude Latitude Longitude Leg Dist Tot Dist Heading (true) Name
O EDDN APT - 0 ft / 0 m 49.50055˚ 11.05918˚ - 0 nm - -
O ELLX APT - 0 ft / 0 m 49.61767˚ 6.18746˚ 189 nm 189 nm 274° / 270° -

Altitude Profile

Advertisement - Login to hide

Weather


0- 5 10 15 20 25 30 35+ Temperature / ° C

Clouds and Precipitation
Forecast for 2017-12-14 18:00 UTC. Updated 2 hours ago

Ground ~20,000 ft ~40,000 ft Winds

EDDN

Details ICAO EDDN (NUE)
Name Nurnberg
Region Germany - Civil
Timezone Europe/Berlin (UTC+1.0)
Stats Elevation 1,045 ft / 319 m (AMSL)
Location 49.498744° 11.077580°
Runways 1
Magnetic Variation 3.019° E

METAR

EDDN 141450Z 21011KT 9999 BKN046 06/M02 Q0998 R28/29//95 NOSIG

Decode

TAF

TAF TAF EDDN 141100Z 1412/1512 24020G35KT 9999 FEW015 BKN035 BECMG 1414/1416 20012KT TEMPO 1415/1423 SHRA BKN014TCU BECMG 1418/1420 18007KT TEMPO 1423/1502 RA BKN009 TEMPO 1502/1512 26020G30KT 3000 SHRASN BKN008CB

Decode

Departure Runways

ID Width Length Bearing (true) Bearing (mag) Surface Threshold Offset Overrun Length
10 148 ft / 45 m 8,819 ft / 2,688 m 98.60° 95.58° Asphalt 0 ft / 0 m 0 ft / 0 m
28 148 ft / 45 m 8,819 ft / 2,688 m 278.63° 275.61° Asphalt 0 ft / 0 m 0 ft / 0 m

ELLX

Details ICAO ELLX (LUX)
Name Luxembourg
Region Luxembourg
Timezone Europe/Luxembourg (UTC+1.0)
Stats Elevation 1,158 ft / 353 m (AMSL)
Location 49.626599° 6.211506°
Runways 1
Magnetic Variation 1.690° E

METAR

ELLX 141450Z 23012KT 9999 SCT011 BKN016 03/02 Q0996 TEMPO 24015G30KT

Decode

TAF

TAF ELLX 141100Z 1412/1518 24020G30KT 6000 SCT010 BKN015 BECMG 1415/1419 23012KT TEMPO 1412/1501 3000 SHRASN SCT005 BKN008CB TEMPO 1506/1515 4000 -SHRASN SCT005 BKN010TCU TEMPO 1516/1518 BKN005

Decode

Destination Runways

ID Width Length Bearing (true) Bearing (mag) Surface Threshold Offset Overrun Length
06 197 ft / 60 m 13,135 ft / 4,004 m 60.14° 58.45° Asphalt 0 ft / 0 m 0 ft / 0 m
24 197 ft / 60 m 13,135 ft / 4,004 m 240.18° 238.49° Asphalt 0 ft / 0 m 180 ft / 55 m

Approach Navaids

Runway Type Ident Frequency Range Bearing (true) Bearing (mag) Slope Elevation
06 Localiser ILE 109.90 MHz 18 nm / 33 km 60.21° 58.52° - 1,158 ft / 353 m (AMSL)
06 Glidescope ILE 109.90 MHz 10 nm / 19 km 60.16° 58.47° 3.00° 1,158 ft / 353 m (AMSL)
06 DME ILE 109.90 MHz 18 nm / 33 km - - - 1,158 ft / 353 m (AMSL)
24 Localiser ILW 110.70 MHz 18 nm / 33 km 239.94° 238.25° - 1,158 ft / 353 m (AMSL)
24 Glidescope ILW 110.70 MHz 10 nm / 19 km 240.16° 238.47° 3.00° 1,158 ft / 353 m (AMSL)
24 DME ILW 110.70 MHz 18 nm / 33 km - - - 1,158 ft / 353 m (AMSL)

Popular Alternatives